Terminal Aerodrome Forecast
Issued by NWS

Home | Current Version | Previous Version | Text Only | Print | Product List | Glossary On
Versions: 1 2 3 4 5 6 7 8 9 10 11 12 13
000
FTUS45 KABQ 291743
TAFGUP
TAF
KGUP 291743Z 2918/3018 16007KT P6SM SCT080
     FM292000 22010KT P6SM VCTS BKN080CB
     FM300000 15007KT P6SM VCSH BKN080
     FM300300 VRB04KT P6SM SCT100=

USA.gov is the U.S. government's official web portal to all federal, state and local government web resources and services.